sensor_id;sensor_type;location;lat;lon;timestamp;temperature;humidity
44037;DHT22;62488;-37.670;-63.532;2023-04-24T00:01:58;14.40;99.90
44037;DHT22;62488;-37.670;-63.532;2023-04-24T00:04:26;14.30;99.90
44037;DHT22;62488;-37.670;-63.532;2023-04-24T00:06:53;14.20;99.90
44037;DHT22;62488;-37.670;-63.532;2023-04-24T00:09:26;14.10;99.90
44037;DHT22;62488;-37.670;-63.532;2023-04-24T00:11:53;14.10;99.90
44037;DHT22;62488;-37.670;-63.532;2023-04-24T00:14:20;14.10;99.90
44037;DHT22;62488;-37.670;-63.532;2023-04-24T00:16:48;14.00;99.90
44037;DHT22;62488;-37.670;-63.532;2023-04-24T00:19:15;14.00;99.90
44037;DHT22;62488;-37.670;-63.532;2023-04-24T00:21:42;13.90;99.90
44037;DHT22;62488;-37.670;-63.532;2023-04-24T00:24:10;13.80;99.90
44037;DHT22;62488;-37.670;-63.532;2023-04-24T00:26:37;13.80;99.90
44037;DHT22;62488;-37.670;-63.532;2023-04-24T00:29:04;13.80;99.90
44037;DHT22;62488;-37.670;-63.532;2023-04-24T00:31:31;13.70;99.90
44037;DHT22;62488;-37.670;-63.532;2023-04-24T00:34:01;13.60;99.90
44037;DHT22;62488;-37.670;-63.532;2023-04-24T00:36:28;13.60;99.90
44037;DHT22;62488;-37.670;-63.532;2023-04-24T00:38:57;13.60;99.90
44037;DHT22;62488;-37.670;-63.532;2023-04-24T00:41:25;13.60;99.90
44037;DHT22;62488;-37.670;-63.532;2023-04-24T00:43:53;13.50;99.90
44037;DHT22;62488;-37.670;-63.532;2023-04-24T00:46:21;13.50;99.90
44037;DHT22;62488;-37.670;-63.532;2023-04-24T00:48:48;13.40;99.90
44037;DHT22;62488;-37.670;-63.532;2023-04-24T00:51:15;13.40;99.90
44037;DHT22;62488;-37.670;-63.532;2023-04-24T00:53:42;13.30;99.90
44037;DHT22;62488;-37.670;-63.532;2023-04-24T00:56:10;13.30;99.90
44037;DHT22;62488;-37.670;-63.532;2023-04-24T00:58:37;13.30;99.90
44037;DHT22;62488;-37.670;-63.532;2023-04-24T01:01:05;13.30;99.90
44037;DHT22;62488;-37.670;-63.532;2023-04-24T01:03:33;13.30;99.90
44037;DHT22;62488;-37.670;-63.532;2023-04-24T01:06:03;13.20;99.90
44037;DHT22;62488;-37.670;-63.532;2023-04-24T01:08:31;13.20;99.90
44037;DHT22;62488;-37.670;-63.532;2023-04-24T01:11:00;13.10;99.90
44037;DHT22;62488;-37.670;-63.532;2023-04-24T01:13:27;13.10;99.90
44037;DHT22;62488;-37.670;-63.532;2023-04-24T01:15:54;13.10;99.90
44037;DHT22;62488;-37.670;-63.532;2023-04-24T01:18:21;13.10;99.90
44037;DHT22;62488;-37.670;-63.532;2023-04-24T01:20:51;13.00;99.90
44037;DHT22;62488;-37.670;-63.532;2023-04-24T01:23:20;13.10;99.90
44037;DHT22;62488;-37.670;-63.532;2023-04-24T01:25:47;13.10;99.90
44037;DHT22;62488;-37.670;-63.532;2023-04-24T01:28:15;13.10;99.90
44037;DHT22;62488;-37.670;-63.532;2023-04-24T01:30:42;13.00;99.90
44037;DHT22;62488;-37.670;-63.532;2023-04-24T01:33:10;13.00;99.90
44037;DHT22;62488;-37.670;-63.532;2023-04-24T01:35:38;12.90;99.90
44037;DHT22;62488;-37.670;-63.532;2023-04-24T01:38:05;12.90;99.90
44037;DHT22;62488;-37.670;-63.532;2023-04-24T01:40:33;12.80;99.90
44037;DHT22;62488;-37.670;-63.532;2023-04-24T01:43:00;12.80;99.90
44037;DHT22;62488;-37.670;-63.532;2023-04-24T01:45:27;12.80;99.90
44037;DHT22;62488;-37.670;-63.532;2023-04-24T01:47:54;12.70;99.90
44037;DHT22;62488;-37.670;-63.532;2023-04-24T01:50:22;12.70;99.90
44037;DHT22;62488;-37.670;-63.532;2023-04-24T01:52:49;12.70;99.90
44037;DHT22;62488;-37.670;-63.532;2023-04-24T01:55:16;12.60;99.90
44037;DHT22;62488;-37.670;-63.532;2023-04-24T01:57:43;12.60;99.90
44037;DHT22;62488;-37.670;-63.532;2023-04-24T02:00:10;12.60;99.90
44037;DHT22;62488;-37.670;-63.532;2023-04-24T02:02:39;12.50;99.90
44037;DHT22;62488;-37.670;-63.532;2023-04-24T02:05:08;12.50;99.90
44037;DHT22;62488;-37.670;-63.532;2023-04-24T02:07:35;12.40;99.90
44037;DHT22;62488;-37.670;-63.532;2023-04-24T02:10:02;12.40;99.90
44037;DHT22;62488;-37.670;-63.532;2023-04-24T02:12:30;12.40;99.90
44037;DHT22;62488;-37.670;-63.532;2023-04-24T02:14:57;12.40;99.90
44037;DHT22;62488;-37.670;-63.532;2023-04-24T02:17:25;12.30;99.90
44037;DHT22;62488;-37.670;-63.532;2023-04-24T02:19:52;12.30;99.90
44037;DHT22;62488;-37.670;-63.532;2023-04-24T02:22:19;12.30;99.90
44037;DHT22;62488;-37.670;-63.532;2023-04-24T02:24:48;12.30;99.90
44037;DHT22;62488;-37.670;-63.532;2023-04-24T02:27:15;12.20;99.90
44037;DHT22;62488;-37.670;-63.532;2023-04-24T02:29:42;12.20;99.90
44037;DHT22;62488;-37.670;-63.532;2023-04-24T02:32:10;12.20;99.90
44037;DHT22;62488;-37.670;-63.532;2023-04-24T02:34:38;12.20;99.90
44037;DHT22;62488;-37.670;-63.532;2023-04-24T02:37:05;12.20;99.90
44037;DHT22;62488;-37.670;-63.532;2023-04-24T02:39:34;12.30;99.90
44037;DHT22;62488;-37.670;-63.532;2023-04-24T02:42:01;12.40;99.90
44037;DHT22;62488;-37.670;-63.532;2023-04-24T02:44:28;12.50;99.90
44037;DHT22;62488;-37.670;-63.532;2023-04-24T02:46:55;12.60;99.90
44037;DHT22;62488;-37.670;-63.532;2023-04-24T02:49:22;12.60;99.90
44037;DHT22;62488;-37.670;-63.532;2023-04-24T02:51:49;12.70;99.90
44037;DHT22;62488;-37.670;-63.532;2023-04-24T02:54:16;12.70;99.90
44037;DHT22;62488;-37.670;-63.532;2023-04-24T02:56:43;12.80;99.90
44037;DHT22;62488;-37.670;-63.532;2023-04-24T02:59:10;12.90;99.90
44037;DHT22;62488;-37.670;-63.532;2023-04-24T03:01:37;12.80;99.90
44037;DHT22;62488;-37.670;-63.532;2023-04-24T03:04:05;12.80;99.90
44037;DHT22;62488;-37.670;-63.532;2023-04-24T03:06:32;12.80;99.90
44037;DHT22;62488;-37.670;-63.532;2023-04-24T03:08:59;12.90;99.90
44037;DHT22;62488;-37.670;-63.532;2023-04-24T03:11:26;12.80;99.90
44037;DHT22;62488;-37.670;-63.532;2023-04-24T03:13:53;12.70;99.90
44037;DHT22;62488;-37.670;-63.532;2023-04-24T03:16:20;12.60;99.90
44037;DHT22;62488;-37.670;-63.532;2023-04-24T03:18:47;12.50;99.90
44037;DHT22;62488;-37.670;-63.532;2023-04-24T03:21:14;12.40;99.90
44037;DHT22;62488;-37.670;-63.532;2023-04-24T03:23:41;12.40;99.90
44037;DHT22;62488;-37.670;-63.532;2023-04-24T03:26:08;12.40;99.90
44037;DHT22;62488;-37.670;-63.532;2023-04-24T03:28:35;12.30;99.90
44037;DHT22;62488;-37.670;-63.532;2023-04-24T03:31:04;12.20;99.90
44037;DHT22;62488;-37.670;-63.532;2023-04-24T03:33:31;12.20;99.90
44037;DHT22;62488;-37.670;-63.532;2023-04-24T03:35:58;12.20;99.90
44037;DHT22;62488;-37.670;-63.532;2023-04-24T03:38:25;12.30;99.90
44037;DHT22;62488;-37.670;-63.532;2023-04-24T03:40:54;12.20;99.90
44037;DHT22;62488;-37.670;-63.532;2023-04-24T03:43:23;12.20;99.90
44037;DHT22;62488;-37.670;-63.532;2023-04-24T03:45:50;12.10;99.90
44037;DHT22;62488;-37.670;-63.532;2023-04-24T03:48:17;12.10;99.90
44037;DHT22;62488;-37.670;-63.532;2023-04-24T03:50:44;12.00;99.90
44037;DHT22;62488;-37.670;-63.532;2023-04-24T03:53:11;11.90;99.90
44037;DHT22;62488;-37.670;-63.532;2023-04-24T03:55:38;11.90;99.90
44037;DHT22;62488;-37.670;-63.532;2023-04-24T03:58:05;11.80;99.90
44037;DHT22;62488;-37.670;-63.532;2023-04-24T04:00:32;11.90;99.90
44037;DHT22;62488;-37.670;-63.532;2023-04-24T04:03:00;11.80;99.90
44037;DHT22;62488;-37.670;-63.532;2023-04-24T04:05:27;11.80;99.90
44037;DHT22;62488;-37.670;-63.532;2023-04-24T04:07:54;11.80;99.90
44037;DHT22;62488;-37.670;-63.532;2023-04-24T04:10:21;11.80;99.90
44037;DHT22;62488;-37.670;-63.532;2023-04-24T04:12:48;11.80;99.90
44037;DHT22;62488;-37.670;-63.532;2023-04-24T04:15:16;11.80;99.90
44037;DHT22;62488;-37.670;-63.532;2023-04-24T04:17:43;11.80;99.90
44037;DHT22;62488;-37.670;-63.532;2023-04-24T04:20:10;11.80;99.90
44037;DHT22;62488;-37.670;-63.532;2023-04-24T04:22:38;11.70;99.90
44037;DHT22;62488;-37.670;-63.532;2023-04-24T04:25:05;11.70;99.90
44037;DHT22;62488;-37.670;-63.532;2023-04-24T04:27:32;11.70;99.90
44037;DHT22;62488;-37.670;-63.532;2023-04-24T04:30:00;11.60;99.90
44037;DHT22;62488;-37.670;-63.532;2023-04-24T04:32:32;11.60;99.90
44037;DHT22;62488;-37.670;-63.532;2023-04-24T04:35:02;11.60;99.90
44037;DHT22;62488;-37.670;-63.532;2023-04-24T04:37:30;11.50;99.90
44037;DHT22;62488;-37.670;-63.532;2023-04-24T04:39:57;11.50;99.90
44037;DHT22;62488;-37.670;-63.532;2023-04-24T04:42:25;11.40;99.90
44037;DHT22;62488;-37.670;-63.532;2023-04-24T04:44:53;11.40;99.90
44037;DHT22;62488;-37.670;-63.532;2023-04-24T04:47:22;11.30;99.90
44037;DHT22;62488;-37.670;-63.532;2023-04-24T04:49:50;11.30;99.90
44037;DHT22;62488;-37.670;-63.532;2023-04-24T04:52:20;11.20;99.90
44037;DHT22;62488;-37.670;-63.532;2023-04-24T04:54:51;11.10;99.90
44037;DHT22;62488;-37.670;-63.532;2023-04-24T04:57:18;11.00;99.90
44037;DHT22;62488;-37.670;-63.532;2023-04-24T04:59:45;11.00;99.90
44037;DHT22;62488;-37.670;-63.532;2023-04-24T05:02:12;11.00;99.90
44037;DHT22;62488;-37.670;-63.532;2023-04-24T05:04:39;10.90;99.90
44037;DHT22;62488;-37.670;-63.532;2023-04-24T05:07:07;10.90;99.90
44037;DHT22;62488;-37.670;-63.532;2023-04-24T05:09:34;10.90;99.90
44037;DHT22;62488;-37.670;-63.532;2023-04-24T05:12:01;10.90;99.90
44037;DHT22;62488;-37.670;-63.532;2023-04-24T05:14:28;10.80;99.90
44037;DHT22;62488;-37.670;-63.532;2023-04-24T05:16:56;10.80;99.90
44037;DHT22;62488;-37.670;-63.532;2023-04-24T05:19:23;10.70;99.90
44037;DHT22;62488;-37.670;-63.532;2023-04-24T05:21:50;10.60;99.90
44037;DHT22;62488;-37.670;-63.532;2023-04-24T05:24:17;10.60;99.90
44037;DHT22;62488;-37.670;-63.532;2023-04-24T05:26:44;10.60;99.90
44037;DHT22;62488;-37.670;-63.532;2023-04-24T05:29:12;10.50;99.90
44037;DHT22;62488;-37.670;-63.532;2023-04-24T05:31:39;10.50;99.90
44037;DHT22;62488;-37.670;-63.532;2023-04-24T05:34:06;10.60;99.90
44037;DHT22;62488;-37.670;-63.532;2023-04-24T05:36:33;10.50;99.90
44037;DHT22;62488;-37.670;-63.532;2023-04-24T05:39:00;10.50;99.90
44037;DHT22;62488;-37.670;-63.532;2023-04-24T05:41:27;10.50;99.90
44037;DHT22;62488;-37.670;-63.532;2023-04-24T05:43:54;10.50;99.90
44037;DHT22;62488;-37.670;-63.532;2023-04-24T05:46:21;10.50;99.90
44037;DHT22;62488;-37.670;-63.532;2023-04-24T05:48:48;10.40;99.90
44037;DHT22;62488;-37.670;-63.532;2023-04-24T05:51:15;10.50;99.90
44037;DHT22;62488;-37.670;-63.532;2023-04-24T05:53:42;10.50;99.90
44037;DHT22;62488;-37.670;-63.532;2023-04-24T05:56:09;10.40;99.90
44037;DHT22;62488;-37.670;-63.532;2023-04-24T05:58:36;10.40;99.90
44037;DHT22;62488;-37.670;-63.532;2023-04-24T06:01:04;10.40;99.90
44037;DHT22;62488;-37.670;-63.532;2023-04-24T06:03:31;10.30;99.90
44037;DHT22;62488;-37.670;-63.532;2023-04-24T06:05:58;10.30;99.90
44037;DHT22;62488;-37.670;-63.532;2023-04-24T06:08:25;10.20;99.90
44037;DHT22;62488;-37.670;-63.532;2023-04-24T06:10:52;10.20;99.90
44037;DHT22;62488;-37.670;-63.532;2023-04-24T06:13:19;10.10;99.90
44037;DHT22;62488;-37.670;-63.532;2023-04-24T06:15:46;10.10;99.90
44037;DHT22;62488;-37.670;-63.532;2023-04-24T06:18:13;10.10;99.90
44037;DHT22;62488;-37.670;-63.532;2023-04-24T06:20:40;10.10;99.90
44037;DHT22;62488;-37.670;-63.532;2023-04-24T06:23:07;10.10;99.90
44037;DHT22;62488;-37.670;-63.532;2023-04-24T06:25:34;10.00;99.90
44037;DHT22;62488;-37.670;-63.532;2023-04-24T06:28:02;10.00;99.90
44037;DHT22;62488;-37.670;-63.532;2023-04-24T06:30:29;9.90;99.90
44037;DHT22;62488;-37.670;-63.532;2023-04-24T06:32:56;9.80;99.90
44037;DHT22;62488;-37.670;-63.532;2023-04-24T06:35:23;9.80;99.90
44037;DHT22;62488;-37.670;-63.532;2023-04-24T06:37:52;9.70;99.90
44037;DHT22;62488;-37.670;-63.532;2023-04-24T06:40:18;9.60;99.90
44037;DHT22;62488;-37.670;-63.532;2023-04-24T06:42:46;9.60;99.90
44037;DHT22;62488;-37.670;-63.532;2023-04-24T06:45:13;9.50;99.90
44037;DHT22;62488;-37.670;-63.532;2023-04-24T06:47:40;9.50;99.90
44037;DHT22;62488;-37.670;-63.532;2023-04-24T06:50:07;9.50;99.90
44037;DHT22;62488;-37.670;-63.532;2023-04-24T06:52:34;9.40;99.90
44037;DHT22;62488;-37.670;-63.532;2023-04-24T06:55:02;9.40;99.90
44037;DHT22;62488;-37.670;-63.532;2023-04-24T06:57:29;9.40;99.90
44037;DHT22;62488;-37.670;-63.532;2023-04-24T06:59:57;9.30;99.90
44037;DHT22;62488;-37.670;-63.532;2023-04-24T07:02:24;9.30;99.90
44037;DHT22;62488;-37.670;-63.532;2023-04-24T07:04:51;9.30;99.90
44037;DHT22;62488;-37.670;-63.532;2023-04-24T07:07:19;9.20;99.90
44037;DHT22;62488;-37.670;-63.532;2023-04-24T07:09:46;9.10;99.90
44037;DHT22;62488;-37.670;-63.532;2023-04-24T07:12:13;9.10;99.90
44037;DHT22;62488;-37.670;-63.532;2023-04-24T07:14:40;9.10;99.90
44037;DHT22;62488;-37.670;-63.532;2023-04-24T07:17:09;9.00;99.90
44037;DHT22;62488;-37.670;-63.532;2023-04-24T07:19:36;9.00;99.90
44037;DHT22;62488;-37.670;-63.532;2023-04-24T07:22:03;9.10;99.90
44037;DHT22;62488;-37.670;-63.532;2023-04-24T07:24:33;9.20;99.90
44037;DHT22;62488;-37.670;-63.532;2023-04-24T07:27:00;9.10;99.90
44037;DHT22;62488;-37.670;-63.532;2023-04-24T07:29:30;9.10;99.90
44037;DHT22;62488;-37.670;-63.532;2023-04-24T07:31:57;9.00;99.90
44037;DHT22;62488;-37.670;-63.532;2023-04-24T07:34:24;9.00;99.90
44037;DHT22;62488;-37.670;-63.532;2023-04-24T07:36:51;9.00;99.90
44037;DHT22;62488;-37.670;-63.532;2023-04-24T07:39:18;8.90;99.90
44037;DHT22;62488;-37.670;-63.532;2023-04-24T07:41:45;8.90;99.90
44037;DHT22;62488;-37.670;-63.532;2023-04-24T07:44:12;8.80;99.90
44037;DHT22;62488;-37.670;-63.532;2023-04-24T07:46:40;8.90;99.90
44037;DHT22;62488;-37.670;-63.532;2023-04-24T07:49:08;8.90;99.90
44037;DHT22;62488;-37.670;-63.532;2023-04-24T07:51:35;8.80;99.90
44037;DHT22;62488;-37.670;-63.532;2023-04-24T07:54:07;8.80;99.90
44037;DHT22;62488;-37.670;-63.532;2023-04-24T07:56:34;8.80;99.90
44037;DHT22;62488;-37.670;-63.532;2023-04-24T07:59:05;8.80;99.90
44037;DHT22;62488;-37.670;-63.532;2023-04-24T08:01:32;8.80;99.90
44037;DHT22;62488;-37.670;-63.532;2023-04-24T08:03:59;8.90;99.90
44037;DHT22;62488;-37.670;-63.532;2023-04-24T08:06:26;8.90;99.90
44037;DHT22;62488;-37.670;-63.532;2023-04-24T08:08:59;8.80;99.90
44037;DHT22;62488;-37.670;-63.532;2023-04-24T08:11:27;8.80;99.90
44037;DHT22;62488;-37.670;-63.532;2023-04-24T08:13:54;8.80;99.90
44037;DHT22;62488;-37.670;-63.532;2023-04-24T08:16:21;8.80;99.90
44037;DHT22;62488;-37.670;-63.532;2023-04-24T08:18:50;8.80;99.90
44037;DHT22;62488;-37.670;-63.532;2023-04-24T08:21:17;8.80;99.90
44037;DHT22;62488;-37.670;-63.532;2023-04-24T08:23:48;8.80;99.90
44037;DHT22;62488;-37.670;-63.532;2023-04-24T08:26:15;8.70;99.90
44037;DHT22;62488;-37.670;-63.532;2023-04-24T08:28:42;8.80;99.90
44037;DHT22;62488;-37.670;-63.532;2023-04-24T08:31:10;8.70;99.90
44037;DHT22;62488;-37.670;-63.532;2023-04-24T08:33:37;8.70;99.90
44037;DHT22;62488;-37.670;-63.532;2023-04-24T08:36:05;8.60;99.90
44037;DHT22;62488;-37.670;-63.532;2023-04-24T08:38:32;8.60;99.90
44037;DHT22;62488;-37.670;-63.532;2023-04-24T08:41:01;8.60;99.90
44037;DHT22;62488;-37.670;-63.532;2023-04-24T08:43:32;8.60;99.90
44037;DHT22;62488;-37.670;-63.532;2023-04-24T08:46:00;8.60;99.90
44037;DHT22;62488;-37.670;-63.532;2023-04-24T08:48:28;8.60;99.90
44037;DHT22;62488;-37.670;-63.532;2023-04-24T08:50:56;8.60;99.90
44037;DHT22;62488;-37.670;-63.532;2023-04-24T08:53:25;8.60;99.90
44037;DHT22;62488;-37.670;-63.532;2023-04-24T08:55:54;8.60;99.90
44037;DHT22;62488;-37.670;-63.532;2023-04-24T08:58:25;8.70;99.90
44037;DHT22;62488;-37.670;-63.532;2023-04-24T09:00:57;8.70;99.90
44037;DHT22;62488;-37.670;-63.532;2023-04-24T09:03:27;8.70;99.90
44037;DHT22;62488;-37.670;-63.532;2023-04-24T09:05:56;8.70;99.90
44037;DHT22;62488;-37.670;-63.532;2023-04-24T09:08:25;8.70;99.90
44037;DHT22;62488;-37.670;-63.532;2023-04-24T09:10:52;8.70;99.90
44037;DHT22;62488;-37.670;-63.532;2023-04-24T09:13:22;8.70;99.90
44037;DHT22;62488;-37.670;-63.532;2023-04-24T09:15:50;8.70;99.90
44037;DHT22;62488;-37.670;-63.532;2023-04-24T09:18:17;8.60;99.90
44037;DHT22;62488;-37.670;-63.532;2023-04-24T09:21:02;8.70;99.90
44037;DHT22;62488;-37.670;-63.532;2023-04-24T09:23:31;8.70;99.90
44037;DHT22;62488;-37.670;-63.532;2023-04-24T09:26:00;8.70;99.90
44037;DHT22;62488;-37.670;-63.532;2023-04-24T09:28:37;8.60;99.90
44037;DHT22;62488;-37.670;-63.532;2023-04-24T09:31:09;8.60;99.90
44037;DHT22;62488;-37.670;-63.532;2023-04-24T09:33:36;8.60;99.90
44037;DHT22;62488;-37.670;-63.532;2023-04-24T09:36:04;8.60;99.90
44037;DHT22;62488;-37.670;-63.532;2023-04-24T09:38:36;8.60;99.90
44037;DHT22;62488;-37.670;-63.532;2023-04-24T09:41:06;8.60;99.90
44037;DHT22;62488;-37.670;-63.532;2023-04-24T09:43:35;8.60;99.90
44037;DHT22;62488;-37.670;-63.532;2023-04-24T09:46:06;8.50;99.90
44037;DHT22;62488;-37.670;-63.532;2023-04-24T09:48:36;8.50;99.90
44037;DHT22;62488;-37.670;-63.532;2023-04-24T09:51:05;8.50;99.90
44037;DHT22;62488;-37.670;-63.532;2023-04-24T09:53:39;8.50;99.90
44037;DHT22;62488;-37.670;-63.532;2023-04-24T09:56:10;8.50;99.90
44037;DHT22;62488;-37.670;-63.532;2023-04-24T09:58:39;8.60;99.90
44037;DHT22;62488;-37.670;-63.532;2023-04-24T10:01:06;8.60;99.90
44037;DHT22;62488;-37.670;-63.532;2023-04-24T10:03:34;8.60;99.90
44037;DHT22;62488;-37.670;-63.532;2023-04-24T10:06:02;8.60;99.90
44037;DHT22;62488;-37.670;-63.532;2023-04-24T10:08:36;8.70;99.90
44037;DHT22;62488;-37.670;-63.532;2023-04-24T10:11:03;8.70;99.90
44037;DHT22;62488;-37.670;-63.532;2023-04-24T10:13:30;8.70;99.90
44037;DHT22;62488;-37.670;-63.532;2023-04-24T10:16:01;8.70;99.90
44037;DHT22;62488;-37.670;-63.532;2023-04-24T10:18:28;8.70;99.90
44037;DHT22;62488;-37.670;-63.532;2023-04-24T10:20:56;8.70;99.90
44037;DHT22;62488;-37.670;-63.532;2023-04-24T10:23:25;8.80;99.90
44037;DHT22;62488;-37.670;-63.532;2023-04-24T10:25:52;8.80;99.90
44037;DHT22;62488;-37.670;-63.532;2023-04-24T10:28:21;8.80;99.90
44037;DHT22;62488;-37.670;-63.532;2023-04-24T10:30:50;8.80;99.90
44037;DHT22;62488;-37.670;-63.532;2023-04-24T10:33:19;8.80;99.90
44037;DHT22;62488;-37.670;-63.532;2023-04-24T10:35:47;8.80;99.90
44037;DHT22;62488;-37.670;-63.532;2023-04-24T10:38:18;8.80;99.90
44037;DHT22;62488;-37.670;-63.532;2023-04-24T10:41:06;8.80;99.90
44037;DHT22;62488;-37.670;-63.532;2023-04-24T10:43:34;8.80;99.90
44037;DHT22;62488;-37.670;-63.532;2023-04-24T10:46:03;8.90;99.90
44037;DHT22;62488;-37.670;-63.532;2023-04-24T10:48:31;8.90;99.90
44037;DHT22;62488;-37.670;-63.532;2023-04-24T10:50:59;8.90;99.90
44037;DHT22;62488;-37.670;-63.532;2023-04-24T10:53:30;8.90;99.90
44037;DHT22;62488;-37.670;-63.532;2023-04-24T10:58:37;9.00;99.90
44037;DHT22;62488;-37.670;-63.532;2023-04-24T11:01:04;9.00;99.90
44037;DHT22;62488;-37.670;-63.532;2023-04-24T11:03:35;9.00;99.90
44037;DHT22;62488;-37.670;-63.532;2023-04-24T11:06:03;9.00;99.90
44037;DHT22;62488;-37.670;-63.532;2023-04-24T11:08:43;9.00;99.90
44037;DHT22;62488;-37.670;-63.532;2023-04-24T11:11:12;9.00;99.90
44037;DHT22;62488;-37.670;-63.532;2023-04-24T11:19:26;9.30;99.90
44037;DHT22;62488;-37.670;-63.532;2023-04-24T11:21:58;9.30;99.90
44037;DHT22;62488;-37.670;-63.532;2023-04-24T11:27:18;9.40;99.90
44037;DHT22;62488;-37.670;-63.532;2023-04-24T11:35:03;9.70;99.90
44037;DHT22;62488;-37.670;-63.532;2023-04-24T11:37:35;9.80;99.90
44037;DHT22;62488;-37.670;-63.532;2023-04-24T11:40:04;9.90;99.90
44037;DHT22;62488;-37.670;-63.532;2023-04-24T11:42:45;10.00;99.90
44037;DHT22;62488;-37.670;-63.532;2023-04-24T11:45:26;10.10;99.90
44037;DHT22;62488;-37.670;-63.532;2023-04-24T11:47:53;10.20;99.90
44037;DHT22;62488;-37.670;-63.532;2023-04-24T11:50:23;10.30;99.90
44037;DHT22;62488;-37.670;-63.532;2023-04-24T11:53:12;10.50;99.90
44037;DHT22;62488;-37.670;-63.532;2023-04-24T11:55:39;10.60;99.90
44037;DHT22;62488;-37.670;-63.532;2023-04-24T11:58:06;10.70;99.90
44037;DHT22;62488;-37.670;-63.532;2023-04-24T12:00:33;10.90;99.90
44037;DHT22;62488;-37.670;-63.532;2023-04-24T12:03:10;11.20;99.90
44037;DHT22;62488;-37.670;-63.532;2023-04-24T12:05:38;11.40;99.90
44037;DHT22;62488;-37.670;-63.532;2023-04-24T12:08:06;11.60;99.90
44037;DHT22;62488;-37.670;-63.532;2023-04-24T12:10:34;11.80;99.90
44037;DHT22;62488;-37.670;-63.532;2023-04-24T12:13:01;11.90;99.90
44037;DHT22;62488;-37.670;-63.532;2023-04-24T12:15:28;12.10;99.90
44037;DHT22;62488;-37.670;-63.532;2023-04-24T12:17:56;12.50;99.90
44037;DHT22;62488;-37.670;-63.532;2023-04-24T12:20:30;12.60;99.90
44037;DHT22;62488;-37.670;-63.532;2023-04-24T12:22:58;12.90;99.90
44037;DHT22;62488;-37.670;-63.532;2023-04-24T12:25:31;13.20;99.90
44037;DHT22;62488;-37.670;-63.532;2023-04-24T12:30:33;13.70;99.90
44037;DHT22;62488;-37.670;-63.532;2023-04-24T12:33:03;14.20;99.90
44037;DHT22;62488;-37.670;-63.532;2023-04-24T12:35:31;14.50;99.90
44037;DHT22;62488;-37.670;-63.532;2023-04-24T12:38:22;14.70;99.90
44037;DHT22;62488;-37.670;-63.532;2023-04-24T12:43:30;15.30;99.90
44037;DHT22;62488;-37.670;-63.532;2023-04-24T12:45:57;15.50;99.90
44037;DHT22;62488;-37.670;-63.532;2023-04-24T12:48:29;15.70;99.90
44037;DHT22;62488;-37.670;-63.532;2023-04-24T12:51:00;15.50;99.90
44037;DHT22;62488;-37.670;-63.532;2023-04-24T12:53:28;15.80;99.90
44037;DHT22;62488;-37.670;-63.532;2023-04-24T12:55:56;15.90;99.90
44037;DHT22;62488;-37.670;-63.532;2023-04-24T12:58:23;16.00;99.90
44037;DHT22;62488;-37.670;-63.532;2023-04-24T13:00:51;16.30;99.90
44037;DHT22;62488;-37.670;-63.532;2023-04-24T13:03:18;16.70;99.90
44037;DHT22;62488;-37.670;-63.532;2023-04-24T13:05:46;16.90;99.90
44037;DHT22;62488;-37.670;-63.532;2023-04-24T13:08:13;17.30;99.90
44037;DHT22;62488;-37.670;-63.532;2023-04-24T13:10:40;17.60;99.90
44037;DHT22;62488;-37.670;-63.532;2023-04-24T13:13:08;17.80;99.90
44037;DHT22;62488;-37.670;-63.532;2023-04-24T13:15:35;17.80;99.90
44037;DHT22;62488;-37.670;-63.532;2023-04-24T13:18:03;18.10;99.90
44037;DHT22;62488;-37.670;-63.532;2023-04-24T13:20:30;18.60;99.90
44037;DHT22;62488;-37.670;-63.532;2023-04-24T13:22:58;18.90;99.90
44037;DHT22;62488;-37.670;-63.532;2023-04-24T13:25:25;18.90;99.90
44037;DHT22;62488;-37.670;-63.532;2023-04-24T13:27:52;18.90;99.90
44037;DHT22;62488;-37.670;-63.532;2023-04-24T13:30:19;19.00;99.90
44037;DHT22;62488;-37.670;-63.532;2023-04-24T13:32:47;19.70;99.90
44037;DHT22;62488;-37.670;-63.532;2023-04-24T13:35:13;19.50;99.90
44037;DHT22;62488;-37.670;-63.532;2023-04-24T13:37:40;19.50;99.90
44037;DHT22;62488;-37.670;-63.532;2023-04-24T13:40:08;19.70;99.90
44037;DHT22;62488;-37.670;-63.532;2023-04-24T13:42:35;19.90;99.90
44037;DHT22;62488;-37.670;-63.532;2023-04-24T13:45:02;20.20;99.90
44037;DHT22;62488;-37.670;-63.532;2023-04-24T13:47:29;20.40;99.90
44037;DHT22;62488;-37.670;-63.532;2023-04-24T13:49:57;20.50;99.90
44037;DHT22;62488;-37.670;-63.532;2023-04-24T13:52:24;20.70;99.90
44037;DHT22;62488;-37.670;-63.532;2023-04-24T13:54:51;21.10;99.90
44037;DHT22;62488;-37.670;-63.532;2023-04-24T13:57:18;21.20;99.90
44037;DHT22;62488;-37.670;-63.532;2023-04-24T13:59:45;21.20;99.90
44037;DHT22;62488;-37.670;-63.532;2023-04-24T14:02:12;21.20;99.90
44037;DHT22;62488;-37.670;-63.532;2023-04-24T14:04:40;20.90;99.90
44037;DHT22;62488;-37.670;-63.532;2023-04-24T14:07:07;20.90;99.90
44037;DHT22;62488;-37.670;-63.532;2023-04-24T14:09:34;20.60;99.90
44037;DHT22;62488;-37.670;-63.532;2023-04-24T14:12:01;20.90;99.90
44037;DHT22;62488;-37.670;-63.532;2023-04-24T14:14:29;21.20;99.90
44037;DHT22;62488;-37.670;-63.532;2023-04-24T14:16:57;22.50;99.90
44037;DHT22;62488;-37.670;-63.532;2023-04-24T14:19:24;22.70;99.90
44037;DHT22;62488;-37.670;-63.532;2023-04-24T14:21:51;23.20;99.90
44037;DHT22;62488;-37.670;-63.532;2023-04-24T14:24:18;23.20;99.90
44037;DHT22;62488;-37.670;-63.532;2023-04-24T14:26:45;21.80;99.90
44037;DHT22;62488;-37.670;-63.532;2023-04-24T14:29:12;21.30;99.90
44037;DHT22;62488;-37.670;-63.532;2023-04-24T14:31:39;20.60;99.90
44037;DHT22;62488;-37.670;-63.532;2023-04-24T14:34:06;21.30;99.90
44037;DHT22;62488;-37.670;-63.532;2023-04-24T14:36:33;22.10;99.90
44037;DHT22;62488;-37.670;-63.532;2023-04-24T14:39:01;22.40;99.90
44037;DHT22;62488;-37.670;-63.532;2023-04-24T14:41:37;22.50;99.90
44037;DHT22;62488;-37.670;-63.532;2023-04-24T14:44:05;23.20;99.90
44037;DHT22;62488;-37.670;-63.532;2023-04-24T14:46:32;23.30;99.90
44037;DHT22;62488;-37.670;-63.532;2023-04-24T14:49:00;23.40;99.90
44037;DHT22;62488;-37.670;-63.532;2023-04-24T14:51:28;23.20;99.90
44037;DHT22;62488;-37.670;-63.532;2023-04-24T14:53:55;23.10;99.90
44037;DHT22;62488;-37.670;-63.532;2023-04-24T14:56:23;23.70;99.90
44037;DHT22;62488;-37.670;-63.532;2023-04-24T14:58:51;24.70;99.80
44037;DHT22;62488;-37.670;-63.532;2023-04-24T15:01:18;24.40;99.10
44037;DHT22;62488;-37.670;-63.532;2023-04-24T15:03:45;24.60;99.90
44037;DHT22;62488;-37.670;-63.532;2023-04-24T15:06:12;24.00;98.90
44037;DHT22;62488;-37.670;-63.532;2023-04-24T15:08:39;24.40;99.90
44037;DHT22;62488;-37.670;-63.532;2023-04-24T15:11:09;24.70;98.80
44037;DHT22;62488;-37.670;-63.532;2023-04-24T15:13:36;24.30;99.70
44037;DHT22;62488;-37.670;-63.532;2023-04-24T15:16:03;24.40;99.10
44037;DHT22;62488;-37.670;-63.532;2023-04-24T15:18:32;24.40;99.50
44037;DHT22;62488;-37.670;-63.532;2023-04-24T15:20:59;24.50;99.80